createdAt,value
2019-04-19T00:01:22.506Z,99.90
2019-04-19T00:03:53.101Z,99.90
2019-04-19T00:06:38.223Z,99.90
2019-04-19T00:09:25.117Z,99.90
2019-04-19T00:11:43.909Z,99.90
2019-04-19T00:14:08.577Z,99.90
2019-04-19T00:16:38.542Z,99.90
2019-04-19T00:19:38.127Z,99.90
2019-04-19T00:22:05.011Z,99.90
2019-04-19T00:24:09.967Z,99.90
2019-04-19T00:26:40.015Z,99.90
2019-04-19T00:29:20.225Z,99.90
2019-04-19T00:31:49.410Z,99.90
2019-04-19T00:34:10.526Z,99.90
2019-04-19T00:36:40.527Z,99.90
2019-04-19T00:39:42.576Z,99.90
2019-04-19T00:42:35.379Z,99.90
2019-04-19T00:45:15.854Z,99.90
2019-04-19T00:47:46.477Z,99.90
2019-04-19T00:50:09.902Z,99.90
2019-04-19T00:52:46.510Z,99.90
2019-04-19T00:55:08.242Z,99.90
2019-04-19T00:57:37.223Z,99.90
2019-04-19T01:00:00.384Z,99.90
2019-04-19T01:02:30.257Z,99.90
2019-04-19T01:05:05.527Z,99.90
2019-04-19T01:07:34.394Z,99.90
2019-04-19T01:10:14.822Z,99.90
2019-04-19T01:12:51.451Z,99.90
2019-04-19T01:15:15.328Z,99.90
2019-04-19T01:17:52.442Z,99.90
2019-04-19T01:20:07.004Z,99.90
2019-04-19T01:22:35.815Z,99.90
2019-04-19T01:25:14.049Z,99.90
2019-04-19T01:27:37.632Z,99.90
2019-04-19T01:30:08.280Z,99.90
2019-04-19T01:32:43.051Z,99.90
2019-04-19T01:35:13.341Z,99.90
2019-04-19T01:37:39.568Z,99.90
2019-04-19T01:40:22.448Z,99.90
2019-04-19T01:42:57.813Z,99.90
2019-04-19T01:45:59.505Z,99.90
2019-04-19T01:48:39.681Z,99.90
2019-04-19T01:51:20.379Z,99.90
2019-04-19T01:53:50.356Z,99.90
2019-04-19T01:56:10.891Z,99.90
2019-04-19T01:58:44.599Z,99.90
2019-04-19T02:01:12.464Z,99.90
2019-04-19T02:03:43.611Z,99.90
2019-04-19T02:06:11.588Z,99.90
2019-04-19T02:08:47.392Z,99.90
2019-04-19T02:11:47.182Z,99.90
2019-04-19T02:14:13.506Z,99.90
2019-04-19T02:16:39.162Z,99.90
2019-04-19T02:19:15.815Z,99.90
2019-04-19T02:21:42.411Z,99.90
2019-04-19T02:24:10.684Z,99.90
2019-04-19T02:26:50.314Z,99.90
2019-04-19T02:29:19.057Z,99.90
2019-04-19T02:32:07.328Z,99.90
2019-04-19T02:34:51.717Z,99.90
2019-04-19T02:44:51.808Z,99.90
2019-04-19T02:47:39.254Z,99.90
2019-04-19T02:52:22.214Z,99.90
2019-04-19T02:57:39.538Z,99.90
2019-04-19T03:00:23.041Z,99.90
2019-04-19T03:02:58.028Z,99.90
2019-04-19T03:05:22.380Z,99.90
2019-04-19T03:07:26.122Z,99.90
2019-04-19T03:09:55.544Z,99.90
2019-04-19T03:12:47.206Z,99.90
2019-04-19T03:15:10.094Z,99.90
2019-04-19T03:17:47.361Z,99.90
2019-04-19T03:20:11.847Z,99.90
2019-04-19T03:22:42.300Z,99.90
2019-04-19T03:25:15.952Z,99.90
2019-04-19T03:27:43.292Z,99.90
2019-04-19T03:30:11.977Z,99.90
2019-04-19T03:35:14.263Z,99.90
2019-04-19T03:37:53.176Z,99.90
2019-04-19T03:40:23.354Z,99.90
2019-04-19T03:43:00.431Z,99.90
2019-04-19T03:45:35.251Z,99.90
2019-04-19T03:48:08.884Z,99.90
2019-04-19T03:50:32.594Z,99.90
2019-04-19T03:53:06.459Z,99.90
2019-04-19T03:55:37.467Z,99.90
2019-04-19T03:57:58.072Z,99.90
2019-04-19T04:00:21.586Z,99.90
2019-04-19T04:02:52.448Z,99.90
2019-04-19T04:05:23.048Z,99.90
2019-04-19T04:08:07.487Z,99.90
2019-04-19T04:10:43.744Z,99.90
2019-04-19T04:13:38.402Z,99.90
2019-04-19T04:16:24.216Z,99.90
2019-04-19T04:18:47.037Z,99.90
2019-04-19T04:21:16.329Z,99.90
2019-04-19T04:23:51.117Z,99.90
2019-04-19T04:26:19.506Z,99.90
2019-04-19T04:29:00.689Z,99.90
2019-04-19T04:31:26.330Z,99.90
2019-04-19T04:33:59.378Z,99.90
2019-04-19T04:36:36.204Z,99.90
2019-04-19T04:38:49.997Z,99.90
2019-04-19T04:41:25.760Z,99.90
2019-04-19T04:44:11.374Z,99.90
2019-04-19T04:47:03.237Z,99.90
2019-04-19T04:49:55.803Z,99.90
2019-04-19T04:52:23.838Z,99.90
2019-04-19T04:54:48.173Z,99.90
2019-04-19T04:57:28.443Z,99.90
2019-04-19T04:59:54.229Z,99.90
2019-04-19T05:02:42.416Z,99.90
2019-04-19T05:05:10.226Z,99.90
2019-04-19T05:07:47.808Z,99.90
2019-04-19T05:10:15.994Z,99.90
2019-04-19T05:13:05.597Z,99.90
2019-04-19T05:15:24.701Z,99.90
2019-04-19T05:18:01.446Z,99.90
2019-04-19T05:20:23.861Z,99.90
2019-04-19T05:23:14.249Z,99.90
2019-04-19T05:25:48.257Z,99.90
2019-04-19T05:28:17.735Z,99.90
2019-04-19T05:31:03.534Z,99.90
2019-04-19T05:33:44.132Z,99.90
2019-04-19T05:36:22.307Z,99.90
2019-04-19T05:38:59.404Z,99.90
2019-04-19T05:41:52.861Z,99.90
2019-04-19T05:44:36.033Z,99.90
2019-04-19T05:47:06.222Z,99.90
2019-04-19T05:49:26.280Z,99.90
2019-04-19T05:52:05.471Z,99.90
2019-04-19T05:54:15.274Z,99.90
2019-04-19T05:56:50.504Z,99.90
2019-04-19T05:59:26.668Z,99.90
2019-04-19T06:01:59.150Z,99.90
2019-04-19T06:04:31.414Z,99.90
2019-04-19T06:07:09.534Z,99.90
2019-04-19T06:09:17.667Z,99.90
2019-04-19T06:11:48.376Z,99.90
2019-04-19T06:14:41.054Z,99.90
2019-04-19T06:17:27.901Z,99.90
2019-04-19T06:19:57.562Z,99.90
2019-04-19T06:22:42.999Z,99.90
2019-04-19T06:25:06.653Z,99.90
2019-04-19T06:28:02.456Z,99.90
2019-04-19T06:30:15.193Z,99.90
2019-04-19T06:32:46.031Z,99.90
2019-04-19T06:35:12.290Z,99.90
2019-04-19T06:38:13.776Z,99.90
2019-04-19T06:40:59.101Z,99.90
2019-04-19T06:44:57.238Z,99.90
2019-04-19T06:48:53.147Z,99.90
2019-04-19T06:53:56.692Z,99.90
2019-04-19T06:56:53.683Z,99.90
2019-04-19T06:59:30.028Z,99.90
2019-04-19T07:09:56.855Z,99.90
2019-04-19T07:12:14.992Z,99.90
2019-04-19T07:18:51.996Z,99.90
2019-04-19T07:21:49.321Z,99.90
2019-04-19T07:24:37.575Z,99.90
2019-04-19T07:27:23.433Z,99.90
2019-04-19T07:29:45.756Z,99.90
2019-04-19T07:32:17.800Z,99.90
2019-04-19T07:35:02.291Z,99.90
2019-04-19T07:37:34.869Z,99.90
2019-04-19T07:40:16.499Z,99.90
2019-04-19T07:42:39.808Z,99.90
2019-04-19T07:45:05.800Z,99.90
2019-04-19T07:47:45.530Z,99.90
2019-04-19T07:50:15.426Z,99.90
2019-04-19T07:52:45.360Z,99.90
2019-04-19T07:55:11.015Z,99.90
2019-04-19T07:58:16.788Z,99.90
2019-04-19T08:00:46.727Z,99.90
2019-04-19T08:05:43.921Z,99.90
2019-04-19T08:08:30.240Z,99.90
2019-04-19T08:10:40.884Z,99.90
2019-04-19T08:15:49.726Z,99.90
2019-04-19T08:18:13.080Z,99.90
2019-04-19T08:28:03.152Z,99.90
2019-04-19T08:30:32.133Z,99.90
2019-04-19T08:32:53.208Z,99.90
2019-04-19T08:35:25.608Z,99.90
2019-04-19T08:38:02.448Z,99.90
2019-04-19T08:41:57.093Z,99.90
2019-04-19T08:43:18.766Z,99.90
2019-04-19T08:45:56.746Z,99.90
2019-04-19T08:48:51.039Z,99.90
2019-04-19T08:51:36.673Z,99.90
2019-04-19T08:54:29.747Z,99.90
2019-04-19T08:56:44.896Z,99.90
2019-04-19T08:59:35.842Z,99.90
2019-04-19T09:02:00.882Z,99.90
2019-04-19T09:04:34.791Z,99.90
2019-04-19T09:10:00.128Z,99.90
2019-04-19T09:12:19.994Z,99.90
2019-04-19T09:14:52.299Z,99.90
2019-04-19T09:17:23.122Z,99.90
2019-04-19T09:22:19.393Z,99.90
2019-04-19T09:24:45.000Z,99.90
2019-04-19T09:27:31.001Z,99.90
2019-04-19T09:29:55.173Z,99.90
2019-04-19T09:32:11.911Z,99.90
2019-04-19T09:34:43.881Z,99.90
2019-04-19T09:37:18.373Z,99.90
2019-04-19T09:39:48.698Z,99.90
2019-04-19T09:42:19.075Z,99.90
2019-04-19T09:44:46.143Z,99.90
2019-04-19T09:47:10.380Z,99.90
2019-04-19T09:49:58.704Z,99.90
2019-04-19T09:52:39.714Z,99.90
2019-04-19T09:55:09.277Z,99.90
2019-04-19T09:57:35.719Z,99.90
2019-04-19T09:59:51.041Z,99.90
2019-04-19T10:02:29.037Z,99.90
2019-04-19T10:04:53.080Z,99.90
2019-04-19T10:07:23.062Z,99.90
2019-04-19T10:09:56.746Z,99.90
2019-04-19T10:12:22.872Z,99.90
2019-04-19T10:14:51.721Z,99.90
2019-04-19T10:17:22.630Z,99.90
2019-04-19T10:19:52.814Z,99.90
2019-04-19T10:22:23.072Z,99.90
2019-04-19T10:24:54.112Z,99.90
2019-04-19T10:30:32.267Z,99.90
2019-04-19T10:33:02.375Z,99.90
2019-04-19T10:35:31.584Z,99.90
2019-04-19T10:38:01.970Z,99.90
2019-04-19T10:40:33.446Z,99.90
2019-04-19T10:43:03.203Z,99.50
2019-04-19T10:45:32.459Z,99.00
2019-04-19T10:48:02.165Z,98.90
2019-04-19T10:50:49.758Z,98.90
2019-04-19T10:53:18.981Z,99.40
2019-04-19T10:55:54.098Z,98.60
2019-04-19T10:58:23.596Z,98.60
2019-04-19T11:00:53.470Z,98.30
2019-04-19T11:03:23.219Z,98.30
2019-04-19T11:05:52.653Z,97.60
2019-04-19T11:08:22.446Z,97.90
2019-04-19T11:10:51.926Z,98.10
2019-04-19T11:13:25.730Z,97.10
2019-04-19T11:15:52.130Z,97.80
2019-04-19T11:18:21.608Z,96.90
2019-04-19T11:20:52.826Z,97.70
2019-04-19T11:23:21.868Z,96.60
2019-04-19T11:25:52.251Z,97.40
2019-04-19T11:28:21.398Z,97.40
2019-04-19T11:31:02.501Z,97.60
2019-04-19T11:33:33.086Z,96.20
2019-04-19T11:36:03.551Z,95.30
2019-04-19T11:38:36.815Z,96.40
2019-04-19T11:41:06.987Z,95.60
2019-04-19T11:43:37.657Z,95.70
2019-04-19T11:46:06.935Z,95.20
2019-04-19T11:48:37.474Z,94.50
2019-04-19T11:51:07.685Z,95.50
2019-04-19T11:53:45.670Z,97.30
2019-04-19T11:56:46.275Z,97.00
2019-04-19T11:59:37.216Z,95.20
2019-04-19T12:02:02.207Z,95.30
2019-04-19T12:04:32.273Z,95.60
2019-04-19T12:07:02.727Z,95.10
2019-04-19T12:09:32.458Z,94.80
2019-04-19T12:12:01.561Z,94.70
2019-04-19T12:14:31.628Z,94.80
2019-04-19T12:17:02.737Z,93.80
2019-04-19T12:19:41.447Z,94.10
2019-04-19T12:22:12.891Z,92.50
2019-04-19T12:24:44.692Z,94.10
2019-04-19T12:27:45.703Z,93.60
2019-04-19T12:30:25.455Z,93.70
2019-04-19T12:33:15.297Z,93.70
2019-04-19T12:35:49.461Z,93.70
2019-04-19T12:38:19.864Z,92.60
2019-04-19T12:41:01.673Z,93.20
2019-04-19T12:43:27.937Z,92.90
2019-04-19T12:45:57.273Z,92.40
2019-04-19T12:48:27.850Z,92.40
2019-04-19T12:51:05.762Z,92.30
2019-04-19T12:53:54.251Z,91.40
2019-04-19T12:56:31.840Z,90.90
2019-04-19T12:59:01.937Z,92.30
2019-04-19T13:01:39.768Z,91.30
2019-04-19T13:04:13.106Z,93.40
2019-04-19T13:07:08.816Z,93.90
2019-04-19T13:09:39.329Z,94.30
2019-04-19T13:12:11.005Z,94.40
2019-04-19T13:14:40.164Z,94.20
2019-04-19T13:17:10.423Z,93.60
2019-04-19T13:19:40.813Z,94.30
2019-04-19T13:22:10.404Z,93.90
2019-04-19T13:24:40.518Z,93.30
2019-04-19T13:27:09.861Z,93.60
2019-04-19T13:29:39.007Z,94.40
2019-04-19T13:32:09.348Z,94.80
2019-04-19T13:34:39.126Z,94.90
2019-04-19T13:37:19.070Z,95.10
2019-04-19T13:39:58.952Z,95.40
2019-04-19T13:42:33.476Z,95.50
2019-04-19T13:45:15.285Z,95.20
2019-04-19T13:47:34.345Z,95.20
2019-04-19T13:50:19.317Z,95.30
2019-04-19T13:52:37.078Z,95.30
2019-04-19T13:55:16.776Z,95.40
2019-04-19T13:58:13.697Z,94.90
2019-04-19T14:00:49.103Z,95.10
2019-04-19T14:03:27.562Z,95.20
2019-04-19T14:05:57.773Z,94.60
2019-04-19T14:08:29.619Z,94.40
2019-04-19T14:10:59.295Z,94.30
2019-04-19T14:13:29.060Z,93.70
2019-04-19T14:15:58.799Z,93.80
2019-04-19T14:18:28.776Z,94.10
2019-04-19T14:20:59.126Z,93.80
2019-04-19T14:23:28.656Z,94.10
2019-04-19T14:25:59.025Z,93.40
2019-04-19T14:28:29.407Z,93.40
2019-04-19T14:31:04.720Z,93.50
2019-04-19T14:33:33.169Z,93.10
2019-04-19T14:36:03.984Z,93.40
2019-04-19T14:38:33.885Z,93.10
2019-04-19T14:41:03.060Z,93.10
2019-04-19T14:43:32.369Z,93.20
2019-04-19T14:46:02.374Z,93.30
2019-04-19T14:48:37.108Z,93.20
2019-04-19T14:51:09.637Z,93.00
2019-04-19T14:53:33.459Z,92.60
2019-04-19T14:56:02.755Z,93.00
2019-04-19T14:58:31.847Z,92.70
2019-04-19T15:01:17.265Z,92.50
2019-04-19T15:03:48.832Z,92.00
2019-04-19T15:06:18.005Z,92.50
2019-04-19T15:08:47.645Z,92.50
2019-04-19T15:11:17.929Z,92.40
2019-04-19T15:13:47.232Z,92.60
2019-04-19T15:16:16.727Z,92.50
2019-04-19T15:18:46.129Z,93.10
2019-04-19T15:21:18.612Z,92.30
2019-04-19T15:23:47.352Z,92.10
2019-04-19T15:26:16.452Z,92.20
2019-04-19T15:28:46.760Z,92.10
2019-04-19T15:31:16.646Z,91.90
2019-04-19T15:33:45.792Z,91.70
2019-04-19T15:36:15.643Z,91.70
2019-04-19T15:38:45.940Z,91.90
2019-04-19T15:41:16.401Z,91.80
2019-04-19T15:43:46.038Z,91.60
2019-04-19T15:46:15.618Z,91.60
2019-04-19T15:48:48.949Z,91.60
2019-04-19T15:51:37.908Z,91.60
2019-04-19T15:54:06.268Z,91.60
2019-04-19T15:56:36.170Z,91.70
2019-04-19T15:59:07.071Z,91.80
2019-04-19T16:01:53.750Z,91.70
2019-04-19T16:04:41.908Z,91.90
2019-04-19T16:07:26.067Z,91.70
2019-04-19T16:10:08.399Z,91.80
2019-04-19T16:12:41.834Z,92.00
2019-04-19T16:15:11.745Z,91.80
2019-04-19T16:17:41.892Z,91.70
2019-04-19T16:20:11.436Z,91.40
2019-04-19T16:22:40.699Z,91.70
2019-04-19T16:25:10.310Z,91.90
2019-04-19T16:27:48.502Z,91.50
2019-04-19T16:30:18.622Z,91.60
2019-04-19T16:32:48.879Z,91.30
2019-04-19T16:35:18.155Z,91.20
2019-04-19T16:37:47.221Z,91.10
2019-04-19T16:40:18.510Z,91.10
2019-04-19T16:42:48.014Z,90.80
2019-04-19T16:45:18.067Z,91.20
2019-04-19T16:47:47.392Z,91.20
2019-04-19T16:50:18.647Z,91.60
2019-04-19T16:52:54.616Z,92.00
2019-04-19T16:55:23.780Z,91.80
2019-04-19T16:57:52.930Z,91.80
2019-04-19T17:00:32.797Z,91.90
2019-04-19T17:03:07.936Z,91.90
2019-04-19T17:05:50.646Z,91.80
2019-04-19T17:11:39.663Z,91.80
2019-04-19T17:14:16.893Z,91.70
2019-04-19T17:17:36.363Z,91.80
2019-04-19T17:20:52.075Z,92.10
2019-04-19T17:23:26.603Z,92.30
2019-04-19T17:25:59.068Z,92.60
2019-04-19T17:31:18.221Z,93.10
2019-04-19T17:33:48.276Z,93.50
2019-04-19T17:36:18.253Z,93.70
2019-04-19T17:38:54.698Z,94.00
2019-04-19T17:41:24.975Z,94.40
2019-04-19T17:43:55.404Z,94.50
2019-04-19T17:46:24.897Z,94.80
2019-04-19T17:48:54.879Z,95.00
2019-04-19T17:51:27.411Z,95.30
2019-04-19T17:53:58.362Z,95.50
2019-04-19T17:56:31.351Z,95.80
2019-04-19T17:59:02.374Z,96.00
2019-04-19T18:01:42.287Z,96.20
2019-04-19T18:04:19.903Z,96.40
2019-04-19T18:06:57.878Z,96.50
2019-04-19T18:09:26.773Z,96.70
2019-04-19T18:12:11.645Z,96.90
2019-04-19T18:14:41.427Z,97.00
2019-04-19T18:17:26.366Z,97.20
2019-04-19T18:20:00.027Z,97.40
2019-04-19T18:22:38.839Z,97.60
2019-04-19T18:25:00.375Z,97.70
2019-04-19T18:27:56.620Z,98.10
2019-04-19T18:30:48.249Z,98.10
2019-04-19T18:33:22.136Z,98.40
2019-04-19T18:35:58.359Z,98.50
2019-04-19T18:38:25.699Z,98.80
2019-04-19T18:40:55.505Z,99.00
2019-04-19T18:43:37.741Z,99.20
2019-04-19T18:45:55.421Z,99.20
2019-04-19T18:48:24.855Z,99.40
2019-04-19T18:50:56.030Z,99.50
2019-04-19T18:54:02.195Z,99.60
2019-04-19T18:56:25.393Z,99.80
2019-04-19T18:59:08.223Z,99.90
2019-04-19T19:01:41.628Z,99.90
2019-04-19T19:04:23.418Z,99.90
2019-04-19T19:06:51.620Z,99.90
2019-04-19T19:09:33.508Z,99.90
2019-04-19T19:12:00.622Z,99.90
2019-04-19T19:14:24.650Z,99.90
2019-04-19T19:17:20.546Z,99.90
2019-04-19T19:19:54.662Z,99.90
2019-04-19T19:23:09.612Z,99.90
2019-04-19T19:26:10.610Z,99.90
2019-04-19T19:28:49.883Z,99.90
2019-04-19T19:34:34.869Z,99.90
2019-04-19T19:37:32.047Z,99.90
2019-04-19T19:48:28.366Z,99.90
2019-04-19T19:51:17.842Z,99.90
2019-04-19T19:56:32.392Z,99.90
2019-04-19T20:02:09.390Z,99.90
2019-04-19T20:04:27.262Z,99.90
2019-04-19T20:07:01.158Z,99.90
2019-04-19T20:10:15.589Z,99.90
2019-04-19T20:13:08.891Z,99.90
2019-04-19T20:15:50.988Z,99.90
2019-04-19T20:18:23.190Z,99.90
2019-04-19T20:21:36.690Z,99.90
2019-04-19T20:24:43.295Z,99.90
2019-04-19T20:27:09.554Z,99.90
2019-04-19T20:29:43.573Z,99.90
2019-04-19T20:32:17.387Z,99.90
2019-04-19T20:34:43.796Z,99.90
2019-04-19T20:37:16.700Z,99.90
2019-04-19T20:39:48.350Z,99.90
2019-04-19T20:42:24.368Z,99.90
2019-04-19T20:45:00.366Z,99.90
2019-04-19T20:47:28.052Z,99.90
2019-04-19T20:50:12.801Z,99.90
2019-04-19T20:52:44.195Z,99.90
2019-04-19T20:55:26.785Z,99.90
2019-04-19T20:58:22.897Z,99.90
2019-04-19T21:00:44.188Z,99.90
2019-04-19T21:03:17.629Z,99.90
2019-04-19T21:05:47.674Z,99.90
2019-04-19T21:08:16.334Z,99.90
2019-04-19T21:10:53.795Z,99.90
2019-04-19T21:13:19.610Z,99.90
2019-04-19T21:15:46.914Z,99.90
2019-04-19T21:18:20.716Z,99.90
2019-04-19T21:20:47.242Z,99.90
2019-04-19T21:23:22.118Z,99.90
2019-04-19T21:25:53.740Z,99.90
2019-04-19T21:28:18.828Z,99.90
2019-04-19T21:30:54.190Z,99.90
2019-04-19T21:33:20.145Z,99.90
2019-04-19T21:35:57.157Z,99.90
2019-04-19T21:38:24.497Z,99.90
2019-04-19T21:40:50.404Z,99.90
2019-04-19T21:43:21.298Z,99.90
2019-04-19T21:45:53.259Z,99.90
2019-04-19T21:48:26.859Z,99.90
2019-04-19T21:50:53.559Z,99.90
2019-04-19T21:53:22.794Z,99.90
2019-04-19T21:55:59.579Z,99.90
2019-04-19T21:58:24.830Z,99.90
2019-04-19T22:01:16.033Z,99.90
2019-04-19T22:03:44.267Z,99.90
2019-04-19T22:06:21.152Z,99.90
2019-04-19T22:08:45.984Z,99.90
2019-04-19T22:11:16.219Z,99.90
2019-04-19T22:13:48.892Z,99.90
2019-04-19T22:16:16.651Z,99.90
2019-04-19T22:18:50.573Z,99.90
2019-04-19T22:21:16.688Z,99.90
2019-04-19T22:23:49.883Z,99.90
2019-04-19T22:26:25.064Z,99.90
2019-04-19T22:28:47.868Z,99.90
2019-04-19T22:31:24.442Z,99.90
2019-04-19T22:33:48.368Z,99.90
2019-04-19T22:36:17.549Z,99.90
2019-04-19T22:38:47.849Z,99.90
2019-04-19T22:41:20.513Z,99.90
2019-04-19T22:43:48.901Z,99.90
2019-04-19T22:46:19.483Z,99.90
2019-04-19T22:48:54.353Z,99.90
2019-04-19T22:51:20.304Z,99.90
2019-04-19T22:53:50.436Z,99.90
2019-04-19T22:56:28.172Z,99.90
2019-04-19T22:58:49.947Z,99.90
2019-04-19T23:01:31.569Z,99.90
2019-04-19T23:04:09.765Z,99.90
2019-04-19T23:06:32.585Z,99.90
2019-04-19T23:09:05.087Z,99.90
2019-04-19T23:11:33.326Z,99.90
2019-04-19T23:14:03.242Z,99.90
2019-04-19T23:16:35.168Z,99.90
2019-04-19T23:19:05.918Z,99.90
2019-04-19T23:21:33.241Z,99.90
2019-04-19T23:24:08.277Z,99.90
2019-04-19T23:26:57.403Z,99.90
2019-04-19T23:29:04.436Z,99.90
2019-04-19T23:31:38.784Z,99.90
2019-04-19T23:34:06.405Z,99.90
2019-04-19T23:36:35.391Z,99.90
2019-04-19T23:39:10.204Z,99.90
2019-04-19T23:41:37.161Z,99.90
2019-04-19T23:44:11.241Z,99.90
2019-04-19T23:46:37.458Z,99.90
2019-04-19T23:49:10.351Z,99.90
2019-04-19T23:51:36.982Z,99.90
2019-04-19T23:54:15.069Z,99.90
2019-04-19T23:56:49.144Z,99.90
2019-04-19T23:59:12.860Z,99.90
